createdAt,value
2022-12-25T00:00:21.432Z,87.32
2022-12-25T00:03:09.927Z,87.20
2022-12-25T00:05:39.927Z,87.03
2022-12-25T00:08:07.964Z,86.45
2022-12-25T00:10:42.918Z,87.83
2022-12-25T00:13:13.320Z,87.88
2022-12-25T00:15:42.136Z,87.99
2022-12-25T00:18:10.300Z,87.38
2022-12-25T00:20:38.660Z,87.88
2022-12-25T00:23:07.701Z,86.86
2022-12-25T00:25:40.168Z,87.15
2022-12-25T00:28:08.238Z,87.30
2022-12-25T00:30:41.302Z,86.74
2022-12-25T00:33:09.397Z,87.17
2022-12-25T00:35:38.840Z,88.05
2022-12-25T00:38:06.939Z,88.66
2022-12-25T00:40:42.231Z,88.37
2022-12-25T00:43:10.447Z,87.87
2022-12-25T00:45:38.897Z,88.60
2022-12-25T00:48:07.848Z,88.41
2022-12-25T00:50:39.147Z,88.92
2022-12-25T00:53:07.241Z,89.16
2022-12-25T00:55:35.700Z,89.63
2022-12-25T00:58:03.867Z,89.65
2022-12-25T01:00:32.293Z,89.65
2022-12-25T01:03:01.053Z,89.10
2022-12-25T01:05:29.752Z,88.95
2022-12-25T01:07:57.857Z,88.58
2022-12-25T01:10:26.227Z,88.96
2022-12-25T01:12:54.233Z,88.57
2022-12-25T01:15:22.600Z,88.57
2022-12-25T01:17:50.980Z,88.31
2022-12-25T01:20:19.718Z,88.15
2022-12-25T01:22:47.809Z,88.58
2022-12-25T01:25:16.297Z,88.98
2022-12-25T01:27:44.449Z,88.98
2022-12-25T01:30:13.186Z,89.04
2022-12-25T01:32:41.230Z,89.30
2022-12-25T01:35:09.873Z,89.33
2022-12-25T01:37:38.080Z,88.82
2022-12-25T01:40:08.836Z,88.80
2022-12-25T01:42:36.979Z,88.66
2022-12-25T01:45:32.747Z,89.19
2022-12-25T01:48:08.547Z,88.99
2022-12-25T01:50:41.289Z,88.72
2022-12-25T01:53:09.568Z,89.49
2022-12-25T01:55:39.706Z,88.89
2022-12-25T01:58:08.796Z,88.69
2022-12-25T02:00:37.414Z,88.75
2022-12-25T02:03:06.241Z,89.08
2022-12-25T02:05:35.742Z,89.48
2022-12-25T02:08:12.377Z,89.14
2022-12-25T02:10:43.939Z,88.68
2022-12-25T02:13:18.339Z,89.22
2022-12-25T02:16:01.619Z,90.26
2022-12-25T02:18:54.580Z,89.70
2022-12-25T02:21:53.003Z,89.80
2022-12-25T02:24:56.167Z,89.39
2022-12-25T02:27:37.805Z,89.20
2022-12-25T02:30:08.894Z,89.95
2022-12-25T02:33:18.257Z,89.89
2022-12-25T02:35:52.096Z,90.19
2022-12-25T02:38:32.410Z,90.01
2022-12-25T02:41:06.491Z,89.70
2022-12-25T02:43:59.213Z,89.45
2022-12-25T02:46:49.377Z,89.47
2022-12-25T02:49:41.953Z,89.37
2022-12-25T02:52:34.628Z,90.28
2022-12-25T02:55:36.726Z,90.13
2022-12-25T02:58:28.418Z,90.21
2022-12-25T03:01:22.234Z,89.94
2022-12-25T03:04:12.908Z,90.02
2022-12-25T03:06:57.255Z,90.05
2022-12-25T03:09:47.908Z,90.04
2022-12-25T03:12:40.467Z,90.31
2022-12-25T03:15:29.637Z,90.19
2022-12-25T03:18:01.885Z,90.85
2022-12-25T03:20:50.393Z,91.05
2022-12-25T03:23:42.369Z,91.56
2022-12-25T03:26:29.045Z,90.93
2022-12-25T03:28:57.589Z,90.30
2022-12-25T03:31:53.821Z,89.68
2022-12-25T03:34:48.462Z,89.70
2022-12-25T03:37:43.279Z,90.58
2022-12-25T03:40:40.466Z,89.81
2022-12-25T03:44:15.233Z,88.85
2022-12-25T03:47:10.298Z,89.85
2022-12-25T03:50:10.012Z,89.82
2022-12-25T03:52:59.304Z,89.59
2022-12-25T03:55:46.363Z,89.57
2022-12-25T03:58:43.155Z,89.85
2022-12-25T04:01:30.350Z,89.67
2022-12-25T04:04:17.639Z,90.89
2022-12-25T04:07:04.251Z,90.38
2022-12-25T04:09:51.998Z,90.43
2022-12-25T04:12:38.604Z,90.10
2022-12-25T04:15:26.227Z,91.30
2022-12-25T04:18:12.856Z,90.74
2022-12-25T04:21:00.707Z,90.72
2022-12-25T04:23:47.110Z,91.19
2022-12-25T04:26:33.788Z,91.29
2022-12-25T04:29:20.320Z,92.20
2022-12-25T04:32:07.257Z,91.06
2022-12-25T04:34:53.760Z,90.89
2022-12-25T04:37:23.188Z,90.88
2022-12-25T04:39:51.100Z,90.48
2022-12-25T04:42:19.398Z,89.67
2022-12-25T04:44:47.247Z,90.64
2022-12-25T04:47:15.418Z,90.16
2022-12-25T04:49:43.312Z,89.97
2022-12-25T04:52:11.610Z,89.99
2022-12-25T04:54:39.659Z,89.88
2022-12-25T04:57:08.058Z,90.64
2022-12-25T04:59:36.332Z,90.02
2022-12-25T05:02:04.682Z,90.61
2022-12-25T05:04:32.894Z,90.75
2022-12-25T05:07:01.132Z,91.53
2022-12-25T05:09:29.191Z,90.83
2022-12-25T05:11:58.679Z,90.90
2022-12-25T05:14:26.619Z,90.91
2022-12-25T05:16:54.777Z,92.29
2022-12-25T05:19:22.547Z,91.38
2022-12-25T05:21:50.738Z,91.67
2022-12-25T05:24:18.559Z,92.40
2022-12-25T05:26:46.756Z,92.55
2022-12-25T05:29:14.637Z,93.23
2022-12-25T05:31:42.844Z,91.62
2022-12-25T05:34:11.370Z,91.48
2022-12-25T05:36:39.700Z,92.25
2022-12-25T05:39:07.614Z,91.97
2022-12-25T05:41:35.858Z,91.57
2022-12-25T05:44:04.520Z,92.06
2022-12-25T05:46:34.057Z,90.92
2022-12-25T05:49:02.108Z,91.68
2022-12-25T05:51:32.013Z,92.07
2022-12-25T05:54:00.005Z,91.67
2022-12-25T05:56:29.451Z,91.95
2022-12-25T05:58:57.551Z,91.68
2022-12-25T06:01:27.698Z,92.10
2022-12-25T06:03:57.380Z,91.58
2022-12-25T06:06:25.700Z,92.01
2022-12-25T06:08:55.404Z,91.78
2022-12-25T06:11:23.887Z,91.27
2022-12-25T06:13:53.206Z,91.65
2022-12-25T06:16:22.081Z,92.33
2022-12-25T06:18:54.702Z,92.18
2022-12-25T06:21:23.147Z,92.14
2022-12-25T06:23:51.085Z,91.01
2022-12-25T06:26:20.667Z,90.30
2022-12-25T06:28:48.883Z,89.53
2022-12-25T06:31:20.568Z,90.04
2022-12-25T06:33:49.225Z,90.29
2022-12-25T06:36:28.337Z,89.62
2022-12-25T06:38:57.064Z,90.69
2022-12-25T06:41:28.727Z,90.28
2022-12-25T06:43:59.466Z,90.29
2022-12-25T06:46:30.405Z,89.52
2022-12-25T06:49:00.099Z,88.65
2022-12-25T06:51:30.734Z,89.86
2022-12-25T06:54:04.359Z,90.89
2022-12-25T06:56:34.069Z,90.85
2022-12-25T06:59:08.688Z,90.69
2022-12-25T07:01:57.728Z,90.03
2022-12-25T07:04:28.566Z,89.00
2022-12-25T07:06:56.725Z,89.26
2022-12-25T07:09:25.246Z,89.45
2022-12-25T07:11:54.748Z,88.74
2022-12-25T07:14:24.726Z,89.59
2022-12-25T07:16:53.136Z,88.83
2022-12-25T07:19:21.025Z,87.87
2022-12-25T07:21:49.259Z,87.91
2022-12-25T07:24:21.801Z,88.51
2022-12-25T07:26:51.186Z,89.40
2022-12-25T07:29:19.912Z,88.22
2022-12-25T07:31:49.667Z,89.55
2022-12-25T07:34:18.472Z,89.52
2022-12-25T07:36:46.926Z,88.06
2022-12-25T07:39:14.886Z,87.32
2022-12-25T07:41:44.717Z,88.13
2022-12-25T07:44:16.916Z,87.45
2022-12-25T07:46:45.490Z,87.70
2022-12-25T07:49:13.648Z,88.34
2022-12-25T07:51:41.977Z,88.45
2022-12-25T07:54:09.786Z,87.98
2022-12-25T07:56:37.975Z,88.47
2022-12-25T07:59:05.806Z,87.62
2022-12-25T08:01:34.280Z,88.48
2022-12-25T08:04:03.207Z,88.92
2022-12-25T08:06:35.100Z,87.97
2022-12-25T08:09:12.006Z,87.76
2022-12-25T08:11:44.859Z,86.92
2022-12-25T08:14:12.747Z,86.95
2022-12-25T08:16:42.965Z,87.54
2022-12-25T08:19:12.987Z,87.82
2022-12-25T08:21:41.094Z,88.19
2022-12-25T08:24:09.146Z,87.15
2022-12-25T08:26:38.289Z,87.73
2022-12-25T08:29:06.207Z,87.46
2022-12-25T08:31:39.453Z,87.10
2022-12-25T08:34:12.088Z,86.80
2022-12-25T08:36:41.920Z,87.65
2022-12-25T08:39:09.749Z,87.70
2022-12-25T08:41:38.133Z,87.34
2022-12-25T08:44:07.055Z,87.31
2022-12-25T08:46:37.222Z,86.30
2022-12-25T08:49:05.336Z,85.47
2022-12-25T08:51:34.709Z,86.46
2022-12-25T08:54:02.542Z,86.55
2022-12-25T08:56:30.968Z,86.45
2022-12-25T08:58:58.886Z,85.82
2022-12-25T09:01:27.310Z,86.28
2022-12-25T09:03:55.297Z,86.59
2022-12-25T09:06:23.616Z,86.59
2022-12-25T09:08:51.432Z,86.23
2022-12-25T09:11:21.699Z,86.54
2022-12-25T09:13:50.229Z,85.82
2022-12-25T09:16:21.877Z,85.00
2022-12-25T09:18:50.575Z,84.64
2022-12-25T09:21:19.663Z,85.83
2022-12-25T09:23:47.769Z,85.66
2022-12-25T09:26:18.504Z,85.11
2022-12-25T09:28:51.780Z,85.21
2022-12-25T09:31:22.988Z,84.05
2022-12-25T09:33:52.400Z,84.68
2022-12-25T09:36:23.799Z,84.00
2022-12-25T09:38:52.988Z,83.26
2022-12-25T09:41:40.357Z,82.65
2022-12-25T09:44:17.253Z,82.65
2022-12-25T09:47:07.127Z,82.76
2022-12-25T09:49:45.219Z,82.74
2022-12-25T09:52:51.695Z,82.42
2022-12-25T09:55:25.986Z,82.23
2022-12-25T09:58:00.859Z,82.24
2022-12-25T10:00:39.056Z,81.69
2022-12-25T10:03:36.021Z,81.42
2022-12-25T10:06:14.368Z,80.07
2022-12-25T10:08:47.765Z,79.95
2022-12-25T10:11:37.506Z,79.67
2022-12-25T10:14:30.370Z,79.94
2022-12-25T10:17:19.521Z,80.24
2022-12-25T10:20:17.983Z,79.82
2022-12-25T10:22:52.173Z,79.26
2022-12-25T10:25:25.641Z,79.83
2022-12-25T10:28:01.043Z,79.81
2022-12-25T10:30:30.032Z,80.13
2022-12-25T10:32:59.137Z,80.02
2022-12-25T10:35:29.825Z,79.42
2022-12-25T10:38:03.136Z,79.40
2022-12-25T10:40:41.225Z,80.58
2022-12-25T10:43:16.095Z,79.36
2022-12-25T10:45:49.633Z,78.71
2022-12-25T10:48:30.379Z,78.14
2022-12-25T10:50:58.834Z,78.65
2022-12-25T10:53:29.183Z,78.34
2022-12-25T10:56:04.710Z,77.82
2022-12-25T10:58:34.484Z,77.55
2022-12-25T11:01:07.426Z,77.09
2022-12-25T11:03:39.103Z,77.18
2022-12-25T11:06:21.382Z,76.65
2022-12-25T11:09:02.698Z,76.86
2022-12-25T11:11:31.544Z,77.21
2022-12-25T11:14:02.124Z,76.71
2022-12-25T11:16:40.516Z,76.31
2022-12-25T11:19:27.903Z,76.76
2022-12-25T11:22:00.215Z,76.78
2022-12-25T11:24:31.408Z,75.96
2022-12-25T11:27:06.657Z,75.53
2022-12-25T11:29:56.068Z,75.51
2022-12-25T11:32:38.123Z,74.44
2022-12-25T11:35:13.790Z,76.12
2022-12-25T11:37:52.054Z,76.71
2022-12-25T11:40:26.839Z,77.24
2022-12-25T11:43:10.943Z,76.90
2022-12-25T11:46:17.590Z,76.83
2022-12-25T11:48:56.604Z,75.54
2022-12-25T11:51:29.201Z,74.38
2022-12-25T11:54:11.854Z,74.51
2022-12-25T11:56:39.903Z,73.64
2022-12-25T11:59:18.697Z,74.09
2022-12-25T12:01:56.786Z,74.46
2022-12-25T12:04:38.534Z,74.35
2022-12-25T12:07:27.427Z,73.38
2022-12-25T12:10:57.244Z,73.96
2022-12-25T12:13:40.641Z,73.98
2022-12-25T12:16:10.487Z,73.72
2022-12-25T12:18:39.263Z,75.05
2022-12-25T12:21:24.912Z,74.04
2022-12-25T12:24:11.656Z,73.32
2022-12-25T12:26:42.847Z,73.19
2022-12-25T12:29:30.836Z,73.90
2022-12-25T12:32:05.167Z,72.27
2022-12-25T12:34:46.127Z,71.82
2022-12-25T12:37:24.998Z,72.29
2022-12-25T12:39:55.033Z,71.75
2022-12-25T12:42:32.018Z,72.74
2022-12-25T12:45:11.032Z,72.49
2022-12-25T12:47:43.296Z,73.25
2022-12-25T12:50:29.656Z,75.20
2022-12-25T12:52:58.035Z,76.02
2022-12-25T12:55:43.914Z,75.96
2022-12-25T12:58:28.639Z,76.50
2022-12-25T13:01:27.817Z,75.48
2022-12-25T13:04:14.792Z,76.16
2022-12-25T13:06:52.422Z,77.43
2022-12-25T13:09:28.002Z,76.83
2022-12-25T13:11:55.960Z,77.68
2022-12-25T13:14:25.595Z,78.09
2022-12-25T13:16:54.974Z,78.06
2022-12-25T13:19:27.059Z,77.80
2022-12-25T13:21:59.119Z,77.77
2022-12-25T13:24:30.285Z,78.34
2022-12-25T13:27:00.176Z,77.86
2022-12-25T13:29:38.030Z,78.62
2022-12-25T13:32:17.530Z,79.50
2022-12-25T13:34:47.115Z,78.64
2022-12-25T13:37:17.839Z,80.27
2022-12-25T13:39:54.934Z,80.09
2022-12-25T13:42:26.542Z,79.48
2022-12-25T13:45:18.963Z,79.06
2022-12-25T13:47:53.053Z,79.51
2022-12-25T13:50:32.857Z,79.12
2022-12-25T13:53:16.753Z,79.15
2022-12-25T13:55:50.947Z,78.81
2022-12-25T13:58:30.091Z,79.90
2022-12-25T14:01:01.621Z,78.89
2022-12-25T14:03:46.524Z,78.50
2022-12-25T14:06:30.257Z,79.07
2022-12-25T14:08:59.756Z,78.82
2022-12-25T14:11:31.497Z,79.02
2022-12-25T14:14:03.647Z,79.71
2022-12-25T14:16:32.300Z,78.38
2022-12-25T14:19:02.567Z,78.96
2022-12-25T14:21:38.570Z,79.81
2022-12-25T14:24:16.988Z,79.37
2022-12-25T14:26:46.818Z,78.71
2022-12-25T14:29:23.661Z,79.68
2022-12-25T14:32:00.947Z,80.38
2022-12-25T14:34:30.773Z,80.32
2022-12-25T14:37:00.260Z,79.58
2022-12-25T14:39:35.005Z,81.16
2022-12-25T14:42:22.892Z,81.14
2022-12-25T14:45:00.268Z,80.98
2022-12-25T14:47:28.813Z,81.08
2022-12-25T14:49:57.002Z,80.71
2022-12-25T14:52:42.791Z,79.95
2022-12-25T14:55:31.286Z,80.07
2022-12-25T14:58:07.987Z,80.06
2022-12-25T15:00:39.442Z,79.75
2022-12-25T15:03:21.563Z,81.01
2022-12-25T15:06:21.454Z,80.93
2022-12-25T15:09:06.599Z,80.51
2022-12-25T15:11:34.551Z,80.54
2022-12-25T15:14:02.766Z,79.95
2022-12-25T15:16:37.896Z,79.77
2022-12-25T15:19:10.189Z,79.57
2022-12-25T15:21:38.200Z,80.83
2022-12-25T15:24:07.489Z,80.95
2022-12-25T15:26:35.333Z,81.72
2022-12-25T15:29:03.586Z,80.94
2022-12-25T15:31:33.633Z,81.55
2022-12-25T15:34:05.246Z,81.32
2022-12-25T15:36:34.349Z,80.68
2022-12-25T15:39:03.901Z,81.28
2022-12-25T15:41:55.599Z,80.85
2022-12-25T15:44:24.728Z,80.34
2022-12-25T15:46:52.803Z,80.08
2022-12-25T15:49:21.400Z,79.97
2022-12-25T15:51:49.229Z,79.44
2022-12-25T15:54:19.110Z,79.88
2022-12-25T15:56:51.100Z,80.07
2022-12-25T15:59:20.619Z,80.65
2022-12-25T16:01:58.180Z,80.68
2022-12-25T16:04:28.394Z,81.33
2022-12-25T16:06:56.949Z,81.24
2022-12-25T16:09:25.380Z,81.55
2022-12-25T16:11:53.264Z,81.55
2022-12-25T16:14:22.019Z,81.93
2022-12-25T16:16:49.937Z,80.61
2022-12-25T16:19:18.957Z,79.82
2022-12-25T16:21:47.662Z,79.81
2022-12-25T16:24:16.375Z,80.06
2022-12-25T16:26:44.593Z,79.56
2022-12-25T16:29:14.530Z,78.66
2022-12-25T16:31:42.567Z,78.55
2022-12-25T16:34:11.970Z,77.89
2022-12-25T16:36:40.193Z,77.46
2022-12-25T16:39:08.550Z,77.66
2022-12-25T16:41:36.457Z,77.34
2022-12-25T16:44:11.316Z,76.72
2022-12-25T16:46:40.273Z,76.70
2022-12-25T16:49:08.959Z,76.91
2022-12-25T16:51:36.998Z,76.54
2022-12-25T16:54:06.785Z,76.88
2022-12-25T16:56:36.886Z,77.07
2022-12-25T16:59:05.155Z,77.28
2022-12-25T17:01:33.164Z,77.10
2022-12-25T17:04:02.958Z,76.88
2022-12-25T17:06:31.930Z,76.93
2022-12-25T17:09:02.407Z,76.84
2022-12-25T17:11:31.576Z,76.75
2022-12-25T17:14:03.011Z,76.82
2022-12-25T17:16:34.325Z,76.69
2022-12-25T17:19:08.317Z,76.39
2022-12-25T17:21:38.496Z,76.33
2022-12-25T17:24:07.310Z,76.06
2022-12-25T17:26:35.458Z,76.57
2022-12-25T17:29:04.691Z,76.32
2022-12-25T17:31:32.707Z,76.77
2022-12-25T17:34:03.147Z,76.90
2022-12-25T17:36:31.947Z,76.75
2022-12-25T17:39:01.499Z,76.30
2022-12-25T17:41:29.499Z,76.20
2022-12-25T17:43:57.713Z,76.06
2022-12-25T17:46:29.240Z,76.64
2022-12-25T17:48:59.237Z,76.43
2022-12-25T17:51:29.282Z,76.85
2022-12-25T17:54:03.416Z,76.94
2022-12-25T17:56:33.317Z,77.05
2022-12-25T17:59:08.300Z,77.11
2022-12-25T18:01:38.740Z,77.07
2022-12-25T18:04:07.433Z,77.12
2022-12-25T18:06:36.605Z,76.48
2022-12-25T18:09:06.532Z,76.54
2022-12-25T18:11:37.794Z,76.42
2022-12-25T18:14:08.235Z,76.97
2022-12-25T18:16:38.567Z,76.56
2022-12-25T18:19:07.196Z,77.41
2022-12-25T18:21:35.762Z,77.44
2022-12-25T18:24:05.964Z,78.37
2022-12-25T18:26:34.393Z,78.16
2022-12-25T18:29:03.417Z,77.86
2022-12-25T18:31:32.041Z,78.44
2022-12-25T18:34:00.420Z,78.43
2022-12-25T18:36:30.180Z,78.03
2022-12-25T18:38:58.907Z,78.02
2022-12-25T18:41:28.907Z,77.90
2022-12-25T18:44:11.507Z,78.20
2022-12-25T18:46:39.632Z,78.71
2022-12-25T18:49:07.465Z,78.39
2022-12-25T18:51:37.243Z,78.13
2022-12-25T18:54:05.156Z,78.32
2022-12-25T18:56:34.305Z,78.13
2022-12-25T18:59:02.389Z,78.38
2022-12-25T19:01:30.612Z,78.28
2022-12-25T19:04:04.401Z,79.04
2022-12-25T19:06:33.812Z,79.66
2022-12-25T19:09:08.953Z,80.34
2022-12-25T19:11:45.883Z,80.63
2022-12-25T19:14:15.410Z,80.60
2022-12-25T19:16:43.708Z,80.88
2022-12-25T19:19:12.223Z,80.27
2022-12-25T19:21:41.099Z,80.25
2022-12-25T19:24:09.130Z,80.13
2022-12-25T19:26:37.855Z,80.46
2022-12-25T19:29:05.726Z,81.24
2022-12-25T19:31:34.353Z,81.59
2022-12-25T19:34:02.779Z,81.74
2022-12-25T19:36:31.313Z,81.99
2022-12-25T19:38:59.042Z,81.88
2022-12-25T19:41:27.244Z,81.99
2022-12-25T19:43:54.992Z,84.13
2022-12-25T19:46:26.800Z,84.00
2022-12-25T19:48:56.127Z,84.14
2022-12-25T19:51:26.915Z,84.46
2022-12-25T19:53:58.993Z,84.90
2022-12-25T19:56:28.454Z,85.97
2022-12-25T19:58:57.531Z,85.16
2022-12-25T20:01:28.165Z,84.65
2022-12-25T20:03:56.136Z,83.47
2022-12-25T20:06:33.016Z,84.02
2022-12-25T20:09:08.069Z,84.46
2022-12-25T20:11:37.201Z,86.73
2022-12-25T20:14:06.924Z,86.27
2022-12-25T20:16:37.444Z,85.30
2022-12-25T20:19:06.054Z,85.56
2022-12-25T20:21:35.306Z,85.72
2022-12-25T20:24:03.742Z,85.33
2022-12-25T20:26:33.180Z,86.41
2022-12-25T20:29:01.024Z,86.37
2022-12-25T20:31:34.354Z,86.85
2022-12-25T20:34:10.573Z,86.47
2022-12-25T20:36:38.789Z,87.19
2022-12-25T20:39:10.050Z,88.40
2022-12-25T20:41:40.715Z,88.05
2022-12-25T20:44:10.421Z,88.98
2022-12-25T20:46:38.974Z,89.83
2022-12-25T20:49:06.910Z,91.16
2022-12-25T20:51:35.613Z,92.65
2022-12-25T20:54:07.595Z,92.74
2022-12-25T20:56:36.900Z,94.33
2022-12-25T20:59:04.892Z,94.97
2022-12-25T21:01:33.172Z,95.05
2022-12-25T21:04:01.052Z,94.60
2022-12-25T21:06:29.799Z,94.18
2022-12-25T21:08:57.631Z,93.53
2022-12-25T21:11:25.996Z,94.02
2022-12-25T21:13:53.825Z,94.70
2022-12-25T21:16:25.382Z,94.63
2022-12-25T21:18:54.148Z,94.78
2022-12-25T21:21:22.871Z,93.64
2022-12-25T21:23:50.962Z,93.96
2022-12-25T21:26:25.302Z,93.25
2022-12-25T21:28:57.623Z,93.81
2022-12-25T21:31:26.349Z,96.01
2022-12-25T21:33:55.856Z,94.96
2022-12-25T21:36:23.903Z,95.19
2022-12-25T21:38:58.520Z,95.50
2022-12-25T21:41:28.892Z,95.33
2022-12-25T21:43:57.165Z,95.27
2022-12-25T21:46:26.380Z,96.91
2022-12-25T21:48:54.568Z,96.48
2022-12-25T21:51:46.054Z,97.83
2022-12-25T21:54:15.901Z,96.87
2022-12-25T21:56:47.419Z,96.67
2022-12-25T21:59:18.795Z,97.69
2022-12-25T22:01:49.848Z,96.49
2022-12-25T22:04:19.691Z,95.71
2022-12-25T22:07:07.472Z,97.66
2022-12-25T22:09:35.820Z,97.43
2022-12-25T22:12:23.776Z,97.25
2022-12-25T22:14:56.304Z,97.17
2022-12-25T22:17:47.355Z,95.96
2022-12-25T22:20:22.780Z,95.72
2022-12-25T22:22:51.258Z,96.19
2022-12-25T22:25:20.625Z,95.24
2022-12-25T22:27:50.756Z,94.06
2022-12-25T22:30:21.934Z,91.60
2022-12-25T22:32:50.690Z,92.36
2022-12-25T22:35:19.470Z,91.93
2022-12-25T22:37:49.928Z,91.25
2022-12-25T22:40:19.609Z,90.44
2022-12-25T22:42:48.927Z,90.04
2022-12-25T22:45:17.241Z,92.72
2022-12-25T22:47:45.567Z,93.11
2022-12-25T22:50:15.358Z,94.26
2022-12-25T22:52:46.087Z,95.33
2022-12-25T22:55:18.601Z,94.72
2022-12-25T22:57:47.098Z,93.65
2022-12-25T23:00:14.949Z,94.01
2022-12-25T23:02:43.445Z,94.62
2022-12-25T23:05:11.378Z,93.59
2022-12-25T23:07:40.818Z,93.22
2022-12-25T23:10:09.561Z,94.39
2022-12-25T23:12:57.108Z,95.17
2022-12-25T23:15:25.040Z,95.79
2022-12-25T23:18:11.890Z,96.03
2022-12-25T23:20:58.633Z,96.27
2022-12-25T23:23:46.269Z,96.53
2022-12-25T23:26:17.321Z,95.98
2022-12-25T23:29:04.554Z,95.79
2022-12-25T23:31:37.051Z,96.07
2022-12-25T23:34:06.224Z,97.11
2022-12-25T23:36:34.964Z,97.70
2022-12-25T23:39:09.643Z,97.63
2022-12-25T23:41:40.474Z,97.93
2022-12-25T23:44:12.176Z,99.36
2022-12-25T23:46:41.899Z,98.91
2022-12-25T23:49:23.972Z,100.00
2022-12-25T23:51:52.273Z,100.00
2022-12-25T23:54:25.054Z,100.00
2022-12-25T23:56:54.717Z,100.00
2022-12-25T23:59:23.404Z,99.79
